עמוד ראשי
METAR-TAF:

METAR-TAF

שדות תעופה :

ברנקייה, קולומביה

קו רוחב: 10-53N, קו אורך: 074-47W, גובה: 14מטר

תצפית מזג אוויר נוכחית

הדו"ח נערך לפני 1 שעות ו 3דקות, בשעה 08:00 UTC
רוח רגועה
טמפרטורת 25 צלסיוס
לחות 100%
לחץ 1011 hPa
ראות 10 קילומטר או יותר
מעט עננים בגובה 1200רגל

METAR: SKBQ 160800Z 00000KT 9999 FEW012 25/25 Q1011 NOSIG

זמן: 04:03 (09:03 UTC)

תחזית

הדו"ח נערך לפני 4 שעות ו 33דקות, בשעה 04:30 UTC
תחזית בתוקף מ 16 ב 06 UTC עד 17 ב 06 UTC
רוח 3קשר עם כיוונים משתנים
ראות 10 קילומטר או יותר
עננים פזורים בגובה 1500רגל
הסתברות 40% :
זמנית מ -
16 ב 10 UTC עד 16 ב 13 UTC
ראות: 4000מטר
עננים בינוניים בגובה 800רגל
אד
זמנית מ -
16 ב 16 UTC עד 16 ב 20 UTC
מעט עננים בגובה 1500רגל , קומולונימבוס.
סופת רעמים, גשם
יעשה מ
16 ב 20 UTC עד 16 ב 22 UTC
רוח 10קשר מכיוון צפון/צפון-מזרח

TAF: SKBQ 160430Z 1606/1706 VRB03KT 9999 SCT015 PROB40 TEMPO 1610/1613 4000 BR BKN008 TEMPO 1616/1620 TSRA FEW015CB BECMG 1620/1622 02010KT TX32/1618Z TN24/1610Z

תצפיות ותחזיות מזג אוויר לגבי יותר מ- 4,000 שדות תעופה ברחבי העולם. דוחות METAR ו- TAF.

התחנות הזמינות מסומנות בנקודות צהובות ואדומות על גבי המפה.

העבר את העכבר לנקודה הצבעונית על מנת לראות את שם התחנה.

לאחר מכן, לחץ כדי לראות את תוכן ואת תחזיות מזג האוויר.

כדי לשנות את המפה: לחץ על הכפתורים הירוקים עם הפלוס השחור כדי להתקרב; על הכפתור הירוק עם המקף כדי להתרחק; או בחיצים הירוקים למפות סמוכות.


METAR-TAF: